createdAt,value
2022-10-19T00:01:19.624Z,99965.19
2022-10-19T00:03:51.332Z,99977.34
2022-10-19T00:06:25.451Z,99976.72
2022-10-19T00:08:56.366Z,99972.09
2022-10-19T00:11:25.766Z,99972.09
2022-10-19T00:13:56.791Z,99977.34
2022-10-19T00:16:27.018Z,99974.50
2022-10-19T00:18:59.105Z,99961.00
2022-10-19T00:21:28.044Z,99973.50
2022-10-19T00:23:58.270Z,99972.94
2022-10-19T00:26:27.571Z,99971.09
2022-10-19T00:28:57.091Z,99969.25
2022-10-19T00:31:26.258Z,99954.34
2022-10-19T00:33:56.962Z,99964.22
2022-10-19T00:36:27.762Z,99958.97
2022-10-19T00:38:58.783Z,99972.13
2022-10-19T00:41:29.913Z,99963.06
2022-10-19T00:44:00.340Z,99973.78
2022-10-19T00:46:31.034Z,99976.81
2022-10-19T00:49:02.146Z,99969.94
2022-10-19T00:51:32.620Z,99979.22
2022-10-19T00:54:05.026Z,99979.84
2022-10-19T00:56:34.564Z,99991.97
2022-10-19T00:59:04.366Z,99986.09
2022-10-19T01:01:34.135Z,99985.94
2022-10-19T01:04:03.103Z,99984.69
2022-10-19T01:06:32.285Z,99982.47
2022-10-19T01:09:00.903Z,99978.78
2022-10-19T01:11:41.245Z,99981.41
2022-10-19T01:14:24.916Z,99976.78
2022-10-19T01:16:59.779Z,99973.75
2022-10-19T01:19:46.147Z,99969.69
2022-10-19T01:22:22.958Z,99972.72
2022-10-19T01:25:01.085Z,99971.09
2022-10-19T01:27:43.344Z,99969.69
2022-10-19T01:30:18.155Z,99964.06
2022-10-19T01:32:56.135Z,99960.22
2022-10-19T01:35:29.086Z,99954.75
2022-10-19T01:38:06.134Z,99950.50
2022-10-19T01:40:41.527Z,99943.47
2022-10-19T01:43:13.879Z,99944.03
2022-10-19T01:45:46.804Z,99946.66
2022-10-19T01:48:17.169Z,99944.41
2022-10-19T01:50:49.237Z,99947.88
2022-10-19T01:53:19.253Z,99921.00
2022-10-19T01:55:50.426Z,99946.38
2022-10-19T01:58:22.497Z,99947.03
2022-10-19T02:00:54.269Z,99942.41
2022-10-19T02:03:23.775Z,99927.25
2022-10-19T02:05:53.884Z,99921.81
2022-10-19T02:08:26.156Z,99939.41
2022-10-19T02:10:54.976Z,99929.28
2022-10-19T02:13:24.421Z,99935.78
2022-10-19T02:15:56.324Z,99926.09
2022-10-19T02:18:27.952Z,99933.16
2022-10-19T02:20:56.941Z,99935.56
2022-10-19T02:23:26.717Z,99934.38
2022-10-19T02:25:55.707Z,99931.75
2022-10-19T02:31:00.416Z,99922.22
2022-10-19T02:33:30.153Z,99921.00
2022-10-19T02:35:58.948Z,99913.91
2022-10-19T02:38:27.953Z,99911.50
2022-10-19T02:41:01.940Z,99913.28
2022-10-19T02:43:31.425Z,99911.66
2022-10-19T02:46:04.159Z,99909.19
2022-10-19T02:48:34.728Z,99902.97
2022-10-19T02:51:03.491Z,99921.56
2022-10-19T02:53:32.139Z,99913.88
2022-10-19T02:56:00.752Z,99913.47
2022-10-19T02:58:29.334Z,99911.88
2022-10-19T03:00:57.973Z,99909.41
2022-10-19T03:03:27.906Z,99904.97
2022-10-19T03:05:56.523Z,99905.72
2022-10-19T03:08:25.274Z,99906.38
2022-10-19T03:10:53.838Z,99905.13
2022-10-19T03:13:22.492Z,99895.63
2022-10-19T03:15:51.162Z,99888.50
2022-10-19T03:18:19.757Z,99896.84
2022-10-19T03:20:49.747Z,99872.19
2022-10-19T03:23:18.453Z,99875.78
2022-10-19T03:25:47.046Z,99888.38
2022-10-19T03:28:15.610Z,99882.66
2022-10-19T03:30:44.168Z,99889.78
2022-10-19T03:33:12.832Z,99882.34
2022-10-19T03:35:41.453Z,99885.53
2022-10-19T03:38:11.408Z,99880.72
2022-10-19T03:40:40.134Z,99884.13
2022-10-19T03:43:08.799Z,99891.41
2022-10-19T03:45:37.435Z,99884.31
2022-10-19T03:48:06.503Z,99884.31
2022-10-19T03:50:35.091Z,99873.84
2022-10-19T03:55:38.615Z,99874.59
2022-10-19T03:58:07.232Z,99878.22
2022-10-19T04:00:35.895Z,99881.06
2022-10-19T04:03:04.733Z,99882.50
2022-10-19T04:05:33.380Z,99879.19
2022-10-19T04:08:01.966Z,99880.25
2022-10-19T04:10:32.247Z,99877.00
2022-10-19T04:13:02.219Z,99878.44
2022-10-19T04:15:30.829Z,99871.19
2022-10-19T04:17:59.464Z,99870.56
2022-10-19T04:20:28.065Z,99874.19
2022-10-19T04:22:56.687Z,99869.53
2022-10-19T04:25:25.324Z,99878.44
2022-10-19T04:27:53.956Z,99874.13
2022-10-19T04:30:23.928Z,99873.34
2022-10-19T04:32:52.579Z,99864.84
2022-10-19T04:35:21.214Z,99881.25
2022-10-19T04:37:49.774Z,99872.38
2022-10-19T04:40:18.566Z,99878.63
2022-10-19T04:42:47.156Z,99874.38
2022-10-19T04:45:19.178Z,99876.44
2022-10-19T04:47:49.182Z,99877.19
2022-10-19T04:50:20.268Z,99877.84
2022-10-19T04:52:48.924Z,99882.28
2022-10-19T04:55:17.553Z,99867.34
2022-10-19T04:57:46.306Z,99874.44
2022-10-19T05:00:15.828Z,99864.50
2022-10-19T05:02:45.631Z,99872.19
2022-10-19T05:05:16.539Z,99865.94
2022-10-19T05:07:45.353Z,99869.78
2022-10-19T05:10:14.331Z,99872.22
2022-10-19T05:12:42.941Z,99859.50
2022-10-19T05:15:12.174Z,99880.09
2022-10-19T05:17:40.761Z,99873.84
2022-10-19T05:20:11.247Z,99879.94
2022-10-19T05:22:41.426Z,99876.69
2022-10-19T05:25:10.487Z,99878.09
2022-10-19T05:27:39.117Z,99875.47
2022-10-19T05:30:09.073Z,99871.66
2022-10-19T05:32:37.720Z,99870.84
2022-10-19T05:35:07.821Z,99877.31
2022-10-19T05:37:36.715Z,99875.47
2022-10-19T05:40:08.660Z,99879.50
2022-10-19T05:42:37.280Z,99870.00
2022-10-19T05:45:07.001Z,99876.88
2022-10-19T05:47:36.280Z,99875.69
2022-10-19T05:50:05.830Z,99877.31
2022-10-19T05:52:35.754Z,99870.28
2022-10-19T05:55:04.897Z,99867.44
2022-10-19T05:57:35.159Z,99870.66
2022-10-19T06:00:05.262Z,99869.03
2022-10-19T06:02:33.872Z,99877.75
2022-10-19T06:05:02.623Z,99884.78
2022-10-19T06:07:31.313Z,99884.59
2022-10-19T06:10:00.327Z,99879.94
2022-10-19T06:12:28.961Z,99890.47
2022-10-19T06:14:58.959Z,99891.44
2022-10-19T06:17:29.740Z,99886.41
2022-10-19T06:19:58.335Z,99881.13
2022-10-19T06:22:26.923Z,99888.41
2022-10-19T06:24:56.345Z,99880.53
2022-10-19T06:27:25.158Z,99876.69
2022-10-19T06:29:53.821Z,99878.28
2022-10-19T06:32:23.938Z,99884.97
2022-10-19T06:34:56.473Z,99889.19
2022-10-19T06:37:25.415Z,99890.38
2022-10-19T06:39:54.092Z,99891.53
2022-10-19T06:42:22.868Z,99888.56
2022-10-19T06:44:51.548Z,99887.50
2022-10-19T06:47:20.177Z,99904.91
2022-10-19T06:49:50.133Z,99896.59
2022-10-19T06:52:18.897Z,99906.09
2022-10-19T06:54:47.486Z,99901.00
2022-10-19T06:57:16.144Z,99896.88
2022-10-19T06:59:44.753Z,99898.66
2022-10-19T07:02:13.776Z,99902.16
2022-10-19T07:04:42.423Z,99896.25
2022-10-19T07:07:12.436Z,99900.31
2022-10-19T07:09:41.577Z,99884.78
2022-10-19T07:12:11.206Z,99897.53
2022-10-19T07:14:39.972Z,99894.28
2022-10-19T07:17:09.427Z,99903.84
2022-10-19T07:19:38.510Z,99901.38
2022-10-19T07:22:07.127Z,99895.47
2022-10-19T07:24:37.049Z,99901.50
2022-10-19T07:27:07.784Z,99895.06
2022-10-19T07:29:36.390Z,99893.81
2022-10-19T07:32:05.157Z,99902.50
2022-10-19T07:34:34.441Z,99894.25
2022-10-19T07:37:03.446Z,99892.63
2022-10-19T07:39:32.253Z,99900.66
2022-10-19T07:42:02.196Z,99902.25
2022-10-19T07:44:30.802Z,99900.81
2022-10-19T07:46:59.815Z,99899.38
2022-10-19T07:49:28.752Z,99898.59
2022-10-19T07:51:57.403Z,99902.19
2022-10-19T07:54:27.541Z,99904.38
2022-10-19T07:56:56.149Z,99903.94
2022-10-19T07:59:26.218Z,99894.00
2022-10-19T08:01:55.966Z,99900.00
2022-10-19T08:04:55.987Z,99899.19
2022-10-19T08:07:13.324Z,99906.84
2022-10-19T08:09:53.235Z,99903.78
2022-10-19T08:12:24.849Z,99896.06
2022-10-19T08:14:55.897Z,99897.88
2022-10-19T08:17:24.517Z,99897.81
2022-10-19T08:19:53.240Z,99905.44
2022-10-19T08:22:21.904Z,99904.22
2022-10-19T08:24:50.569Z,99911.84
2022-10-19T08:27:19.201Z,99898.94
2022-10-19T08:29:47.863Z,99902.34
2022-10-19T08:32:18.004Z,99901.75
2022-10-19T08:34:46.645Z,99902.91
2022-10-19T08:37:39.611Z,99895.91
2022-10-19T08:40:04.024Z,99883.72
2022-10-19T08:42:42.495Z,99894.34
2022-10-19T08:45:34.553Z,99890.72
2022-10-19T08:48:19.055Z,99888.75
2022-10-19T08:50:49.121Z,99881.84
2022-10-19T08:53:20.333Z,99895.75
2022-10-19T08:55:54.811Z,99895.19
2022-10-19T08:58:41.774Z,99901.97
2022-10-19T09:01:14.728Z,99897.66
2022-10-19T09:04:00.358Z,99902.66
2022-10-19T09:06:33.183Z,99895.97
2022-10-19T09:09:02.171Z,99900.00
2022-10-19T09:11:32.545Z,99894.88
2022-10-19T09:14:06.383Z,99889.38
2022-10-19T09:16:35.979Z,99888.38
2022-10-19T09:19:13.809Z,99885.66
2022-10-19T09:21:47.692Z,99884.03
2022-10-19T09:24:28.626Z,99880.53
2022-10-19T09:26:58.636Z,99881.69
2022-10-19T09:29:31.026Z,99879.19
2022-10-19T09:32:02.182Z,99880.22
2022-10-19T09:34:35.055Z,99872.91
2022-10-19T09:37:04.093Z,99867.19
2022-10-19T09:39:32.854Z,99867.00
2022-10-19T09:42:09.088Z,99870.53
2022-10-19T09:44:37.778Z,99871.25
2022-10-19T09:47:18.800Z,99872.66
2022-10-19T09:49:49.848Z,99871.50
2022-10-19T09:52:26.930Z,99871.50
2022-10-19T09:55:01.206Z,99867.84
2022-10-19T09:57:30.334Z,99870.19
2022-10-19T09:59:59.129Z,99866.06
2022-10-19T10:02:33.226Z,99874.22
2022-10-19T10:05:08.276Z,99870.50
2022-10-19T10:07:39.002Z,99864.69
2022-10-19T10:10:12.273Z,99865.25
2022-10-19T10:12:41.956Z,99861.34
2022-10-19T10:15:17.650Z,99851.47
2022-10-19T10:17:47.753Z,99860.91
2022-10-19T10:20:24.728Z,99862.28
2022-10-19T10:22:57.497Z,99852.88
2022-10-19T10:25:29.326Z,99860.81
2022-10-19T10:28:01.511Z,99855.56
2022-10-19T10:30:34.460Z,99854.56
2022-10-19T10:33:13.215Z,99850.44
2022-10-19T10:35:53.714Z,99848.34
2022-10-19T10:38:25.084Z,99856.53
2022-10-19T10:40:55.777Z,99843.44
2022-10-19T10:43:32.039Z,99840.09
2022-10-19T10:46:03.112Z,99834.16
2022-10-19T10:48:34.418Z,99835.88
2022-10-19T10:51:09.645Z,99831.28
2022-10-19T10:53:40.489Z,99822.06
2022-10-19T10:56:23.590Z,99825.63
2022-10-19T10:58:57.502Z,99818.06
2022-10-19T11:01:30.304Z,99817.13
2022-10-19T11:04:04.638Z,99816.44
2022-10-19T11:06:39.515Z,99816.56
2022-10-19T11:09:15.955Z,99809.84
2022-10-19T11:11:47.329Z,99820.41
2022-10-19T11:14:33.855Z,99809.50
2022-10-19T11:17:06.756Z,99804.75
2022-10-19T11:19:40.679Z,99802.69
2022-10-19T11:22:23.613Z,99788.19
2022-10-19T11:25:16.634Z,99791.09
2022-10-19T11:27:50.538Z,99782.56
2022-10-19T11:30:21.596Z,99785.09
2022-10-19T11:32:57.483Z,99777.69
2022-10-19T11:35:50.281Z,99772.00
2022-10-19T11:38:38.731Z,99767.72
2022-10-19T11:41:18.667Z,99765.84
2022-10-19T11:43:58.357Z,99765.16
2022-10-19T11:46:32.056Z,99753.94
2022-10-19T11:49:08.996Z,99740.66
2022-10-19T11:51:40.840Z,99744.19
2022-10-19T11:54:26.209Z,99741.47
2022-10-19T11:57:03.996Z,99731.53
2022-10-19T11:59:41.698Z,99737.16
2022-10-19T12:02:22.629Z,99734.13
2022-10-19T12:04:54.518Z,99723.13
2022-10-19T12:07:45.517Z,99720.31
2022-10-19T12:10:22.384Z,99736.81
2022-10-19T12:12:53.120Z,99721.34
2022-10-19T12:15:24.936Z,99728.88
2022-10-19T12:17:55.826Z,99723.03
2022-10-19T12:20:32.593Z,99728.22
2022-10-19T12:23:03.389Z,99725.09
2022-10-19T12:25:33.945Z,99716.38
2022-10-19T12:28:04.213Z,99707.66
2022-10-19T12:30:34.367Z,99711.88
2022-10-19T12:33:08.831Z,99711.09
2022-10-19T12:35:54.756Z,99702.19
2022-10-19T12:38:28.909Z,99705.22
2022-10-19T12:41:05.095Z,99701.94
2022-10-19T12:43:40.715Z,99710.38
2022-10-19T12:46:16.154Z,99705.31
2022-10-19T12:48:44.868Z,99695.78
2022-10-19T12:51:19.411Z,99702.38
2022-10-19T12:53:49.825Z,99699.25
2022-10-19T12:56:24.405Z,99687.44
2022-10-19T12:58:56.840Z,99681.22
2022-10-19T13:01:27.945Z,99689.53
2022-10-19T13:04:09.885Z,99685.03
2022-10-19T13:06:40.757Z,99667.50
2022-10-19T13:09:10.904Z,99667.25
2022-10-19T13:12:27.403Z,99672.31
2022-10-19T13:14:57.203Z,99666.47
2022-10-19T13:17:44.048Z,99668.06
2022-10-19T13:20:52.632Z,99664.88
2022-10-19T13:23:42.835Z,99660.75
2022-10-19T13:26:33.879Z,99670.94
2022-10-19T13:29:04.208Z,99653.88
2022-10-19T13:31:34.356Z,99659.22
2022-10-19T13:34:11.393Z,99652.75
2022-10-19T13:36:40.252Z,99645.84
2022-10-19T13:39:16.530Z,99639.81
2022-10-19T13:41:48.508Z,99640.84
2022-10-19T13:44:24.892Z,99634.25
2022-10-19T13:47:09.129Z,99638.38
2022-10-19T13:49:42.401Z,99643.19
2022-10-19T13:52:45.159Z,99641.47
2022-10-19T13:55:55.973Z,99635.94
2022-10-19T13:58:35.582Z,99620.06
2022-10-19T14:01:14.184Z,99612.50
2022-10-19T14:03:58.716Z,99611.91
2022-10-19T14:06:29.089Z,99610.53
2022-10-19T14:09:18.780Z,99613.09
2022-10-19T14:11:48.730Z,99614.63
2022-10-19T14:14:19.538Z,99607.91
2022-10-19T14:16:58.328Z,99605.94
2022-10-19T14:19:34.073Z,99601.53
2022-10-19T14:22:19.237Z,99599.53
2022-10-19T14:24:48.017Z,99600.38
2022-10-19T14:27:20.782Z,99592.44
2022-10-19T14:29:50.973Z,99583.19
2022-10-19T14:32:24.920Z,99590.81
2022-10-19T14:34:54.609Z,99573.34
2022-10-19T14:37:24.914Z,99574.81
2022-10-19T14:40:02.988Z,99571.09
2022-10-19T14:42:40.424Z,99564.25
2022-10-19T14:45:18.237Z,99567.09
2022-10-19T14:47:56.678Z,99568.88
2022-10-19T14:50:29.905Z,99571.44
2022-10-19T14:53:03.061Z,99562.94
2022-10-19T14:55:34.950Z,99568.72
2022-10-19T14:58:03.943Z,99568.97
2022-10-19T15:00:33.899Z,99560.59
2022-10-19T15:03:05.940Z,99568.28
2022-10-19T15:05:37.749Z,99566.00
2022-10-19T15:08:10.356Z,99570.47
2022-10-19T15:10:43.233Z,99570.25
2022-10-19T15:13:21.016Z,99561.28
2022-10-19T15:15:52.024Z,99554.97
2022-10-19T15:18:43.884Z,99560.72
2022-10-19T15:21:15.129Z,99555.09
2022-10-19T15:23:46.723Z,99545.72
2022-10-19T15:26:18.929Z,99551.56
2022-10-19T15:28:48.339Z,99550.19
2022-10-19T15:31:19.877Z,99540.97
2022-10-19T15:33:52.339Z,99551.56
2022-10-19T15:36:22.288Z,99550.13
2022-10-19T15:39:17.456Z,99545.13
2022-10-19T15:41:49.996Z,99544.44
2022-10-19T15:44:33.630Z,99540.19
2022-10-19T15:47:20.832Z,99510.72
2022-10-19T15:50:03.804Z,99539.22
2022-10-19T15:52:34.136Z,99530.88
2022-10-19T15:55:02.880Z,99531.38
2022-10-19T15:57:34.149Z,99522.00
2022-10-19T16:00:12.869Z,99535.41
2022-10-19T16:02:41.771Z,99535.34
2022-10-19T16:05:11.987Z,99526.66
2022-10-19T16:07:41.633Z,99533.56
2022-10-19T16:10:19.072Z,99532.66
2022-10-19T16:12:47.909Z,99528.41
2022-10-19T16:15:22.211Z,99521.72
2022-10-19T16:17:53.628Z,99517.72
2022-10-19T16:20:24.536Z,99526.19
2022-10-19T16:22:54.209Z,99517.72
2022-10-19T16:25:23.019Z,99515.56
2022-10-19T16:27:51.737Z,99523.06
2022-10-19T16:30:22.832Z,99518.88
2022-10-19T16:32:51.463Z,99517.97
2022-10-19T16:35:20.043Z,99518.28
2022-10-19T16:37:50.035Z,99514.41
2022-10-19T16:40:18.631Z,99525.78
2022-10-19T16:42:47.254Z,99521.34
2022-10-19T16:45:16.167Z,99513.91
2022-10-19T16:47:45.328Z,99521.81
2022-10-19T16:50:14.105Z,99523.53
2022-10-19T16:52:42.769Z,99518.03
2022-10-19T16:55:12.814Z,99527.81
2022-10-19T16:57:41.951Z,99530.09
2022-10-19T17:00:11.912Z,99521.72
2022-10-19T17:02:43.070Z,99533.53
2022-10-19T17:05:14.597Z,99523.22
2022-10-19T17:07:43.288Z,99530.31
2022-10-19T17:10:13.379Z,99525.16
2022-10-19T17:12:42.097Z,99529.28
2022-10-19T17:18:01.843Z,99526.41
2022-10-19T17:20:30.672Z,99534.19
2022-10-19T17:22:59.374Z,99538.09
2022-10-19T17:25:29.359Z,99524.72
2022-10-19T17:27:58.066Z,99521.72
2022-10-19T17:30:27.008Z,99534.31
2022-10-19T17:32:55.840Z,99523.75
2022-10-19T17:35:24.853Z,99535.53
2022-10-19T17:37:53.634Z,99534.78
2022-10-19T17:40:22.581Z,99532.38
2022-10-19T17:42:52.714Z,99529.88
2022-10-19T17:45:21.431Z,99538.34
2022-10-19T17:47:50.095Z,99531.47
2022-10-19T17:50:18.827Z,99533.75
2022-10-19T17:52:47.594Z,99535.00
2022-10-19T17:55:16.486Z,99524.63
2022-10-19T17:57:45.288Z,99532.38
2022-10-19T18:00:16.080Z,99535.53
2022-10-19T18:02:45.870Z,99526.16
2022-10-19T18:05:14.569Z,99530.97
2022-10-19T18:07:44.638Z,99532.88
2022-10-19T18:10:14.456Z,99539.84
2022-10-19T18:12:43.130Z,99539.91
2022-10-19T18:15:11.867Z,99544.84
2022-10-19T18:17:41.944Z,99530.97
2022-10-19T18:20:11.823Z,99543.28
2022-10-19T18:22:40.451Z,99543.03
2022-10-19T18:25:09.758Z,99537.19
2022-10-19T18:27:38.419Z,99532.78
2022-10-19T18:30:09.202Z,99533.03
2022-10-19T18:32:38.092Z,99530.63
2022-10-19T18:35:10.581Z,99538.50
2022-10-19T18:37:39.213Z,99526.69
2022-10-19T18:40:10.362Z,99532.34
2022-10-19T18:42:39.285Z,99523.75
2022-10-19T18:45:13.185Z,99522.16
2022-10-19T18:47:50.075Z,99514.13
2022-10-19T18:50:22.618Z,99515.34
2022-10-19T18:52:51.314Z,99511.50
2022-10-19T18:55:20.053Z,99517.19
2022-10-19T18:57:48.812Z,99521.84
2022-10-19T19:00:17.716Z,99515.44
2022-10-19T19:02:47.384Z,99507.59
2022-10-19T19:05:16.382Z,99504.34
2022-10-19T19:07:46.465Z,99495.31
2022-10-19T19:10:15.259Z,99498.75
2022-10-19T19:12:45.227Z,99504.81
2022-10-19T19:15:16.996Z,99487.50
2022-10-19T19:18:07.772Z,99482.47
2022-10-19T19:20:36.683Z,99475.66
2022-10-19T19:23:06.757Z,99491.94
2022-10-19T19:25:35.427Z,99499.53
2022-10-19T19:28:04.225Z,99497.75
2022-10-19T19:30:32.892Z,99489.91
2022-10-19T19:33:02.957Z,99483.25
2022-10-19T19:35:31.798Z,99487.50
2022-10-19T19:38:00.535Z,99489.31
2022-10-19T19:40:30.874Z,99481.31
2022-10-19T19:42:59.615Z,99468.22
2022-10-19T19:45:28.297Z,99485.09
2022-10-19T19:47:56.974Z,99489.53
2022-10-19T19:50:25.767Z,99474.50
2022-10-19T19:52:54.513Z,99475.94
2022-10-19T19:55:23.117Z,99477.56
2022-10-19T19:57:54.318Z,99479.59
2022-10-19T20:00:23.801Z,99459.31
2022-10-19T20:02:53.262Z,99469.94
2022-10-19T20:05:22.554Z,99473.31
2022-10-19T20:07:51.642Z,99470.09
2022-10-19T20:10:20.460Z,99454.63
2022-10-19T20:12:49.239Z,99461.44
2022-10-19T20:15:20.527Z,99466.31
2022-10-19T20:17:49.304Z,99465.06
2022-10-19T20:20:18.964Z,99469.94
2022-10-19T20:22:52.118Z,99464.69
2022-10-19T20:25:21.083Z,99460.75
2022-10-19T20:27:49.840Z,99441.47
2022-10-19T20:30:20.049Z,99452.72
2022-10-19T20:32:48.721Z,99451.13
2022-10-19T20:35:17.519Z,99451.91
2022-10-19T20:37:49.384Z,99450.75
2022-10-19T20:40:18.720Z,99450.22
2022-10-19T20:42:48.340Z,99450.66
2022-10-19T20:45:17.147Z,99447.84
2022-10-19T20:47:47.203Z,99446.09
2022-10-19T20:50:18.091Z,99451.94
2022-10-19T20:52:49.572Z,99453.97
2022-10-19T20:55:20.265Z,99449.38
2022-10-19T20:57:48.912Z,99434.84
2022-10-19T21:00:18.051Z,99438.69
2022-10-19T21:02:48.197Z,99438.16
2022-10-19T21:05:17.093Z,99442.81
2022-10-19T21:07:45.799Z,99441.22
2022-10-19T21:10:14.454Z,99441.63
2022-10-19T21:12:43.110Z,99451.94
2022-10-19T21:15:12.341Z,99451.72
2022-10-19T21:17:41.029Z,99448.34
2022-10-19T21:20:11.841Z,99446.28
2022-10-19T21:22:41.536Z,99446.50
2022-10-19T21:25:11.593Z,99447.38
2022-10-19T21:27:40.354Z,99432.66
2022-10-19T21:30:10.027Z,99441.72
2022-10-19T21:32:38.675Z,99439.53
2022-10-19T21:35:07.964Z,99445.00
2022-10-19T21:37:38.184Z,99441.53
2022-10-19T21:40:08.393Z,99432.34
2022-10-19T21:42:37.080Z,99432.53
2022-10-19T21:45:28.659Z,99442.59
2022-10-19T21:47:55.287Z,99443.38
2022-10-19T21:50:23.931Z,99443.19
2022-10-19T21:52:54.014Z,99441.81
2022-10-19T21:55:24.723Z,99435.56
2022-10-19T21:57:53.349Z,99429.72
2022-10-19T22:00:22.049Z,99423.06
2022-10-19T22:02:50.725Z,99424.25
2022-10-19T22:05:19.472Z,99416.66
2022-10-19T22:07:48.189Z,99422.69
2022-10-19T22:10:18.427Z,99409.19
2022-10-19T22:12:47.166Z,99404.16
2022-10-19T22:15:15.888Z,99415.84
2022-10-19T22:17:44.731Z,99415.63
2022-10-19T22:20:13.453Z,99411.81
2022-10-19T22:22:42.115Z,99411.59
2022-10-19T22:25:10.815Z,99402.97
2022-10-19T22:27:40.828Z,99414.19
2022-10-19T22:30:12.107Z,99409.53
2022-10-19T22:32:40.852Z,99398.09
2022-10-19T22:35:09.989Z,99404.94
2022-10-19T22:37:38.646Z,99406.19
2022-10-19T22:40:08.310Z,99409.41
2022-10-19T22:42:37.534Z,99413.25
2022-10-19T22:45:09.278Z,99414.06
2022-10-19T22:47:37.932Z,99421.72
2022-10-19T22:50:09.459Z,99398.78
2022-10-19T22:52:38.688Z,99405.00
2022-10-19T22:55:08.082Z,99397.13
2022-10-19T22:57:36.731Z,99391.88
2022-10-19T23:00:06.151Z,99392.50
2022-10-19T23:02:36.349Z,99393.94
2022-10-19T23:05:05.560Z,99404.63
2022-10-19T23:07:34.476Z,99399.44
2022-10-19T23:10:03.233Z,99380.13
2022-10-19T23:12:31.965Z,99372.47
2022-10-19T23:15:00.611Z,99385.50
2022-10-19T23:17:29.211Z,99367.00
2022-10-19T23:19:59.231Z,99367.34
2022-10-19T23:22:27.895Z,99362.34
2022-10-19T23:24:56.520Z,99360.34
2022-10-19T23:27:25.142Z,99351.28
2022-10-19T23:29:53.819Z,99360.72
2022-10-19T23:32:22.582Z,99353.47
2022-10-19T23:34:51.188Z,99348.47
2022-10-19T23:37:21.455Z,99335.41
2022-10-19T23:39:50.138Z,99343.69
2022-10-19T23:42:18.881Z,99338.88
2022-10-19T23:44:47.527Z,99337.44
2022-10-19T23:47:16.169Z,99325.81
2022-10-19T23:49:44.752Z,99339.88
2022-10-19T23:52:13.825Z,99339.50
2022-10-19T23:54:43.829Z,99336.69
2022-10-19T23:57:12.464Z,99324.66
2022-10-19T23:59:41.108Z,99340.38
